createdAt,value
2018-03-20T00:00:20.071Z,99.90
2018-03-20T00:02:49.092Z,99.90
2018-03-20T00:05:18.082Z,99.90
2018-03-20T00:07:47.156Z,99.90
2018-03-20T00:10:16.015Z,99.90
2018-03-20T00:12:45.146Z,99.90
2018-03-20T00:15:14.314Z,99.90
2018-03-20T00:17:43.255Z,99.90
2018-03-20T00:20:12.103Z,99.90
2018-03-20T00:22:41.167Z,99.90
2018-03-20T00:25:10.092Z,99.90
2018-03-20T00:27:39.350Z,99.90
2018-03-20T00:30:08.540Z,99.90
2018-03-20T00:32:38.089Z,99.90
2018-03-20T00:35:07.187Z,99.90
2018-03-20T00:37:36.180Z,99.90
2018-03-20T00:40:05.355Z,99.90
2018-03-20T00:42:34.392Z,99.90
2018-03-20T00:45:03.450Z,99.90
2018-03-20T00:47:33.523Z,99.90
2018-03-20T00:50:02.891Z,99.90
2018-03-20T00:52:31.964Z,99.90
2018-03-20T00:55:01.171Z,99.90
2018-03-20T00:57:30.531Z,99.90
2018-03-20T00:59:59.444Z,99.90
2018-03-20T01:02:28.383Z,99.90
2018-03-20T01:04:57.410Z,99.90
2018-03-20T01:07:26.525Z,99.90
2018-03-20T01:09:55.934Z,99.90
2018-03-20T01:12:25.146Z,99.90
2018-03-20T01:14:55.912Z,99.90
2018-03-20T01:17:25.006Z,99.90
2018-03-20T01:19:54.680Z,99.90
2018-03-20T01:22:23.651Z,99.90
2018-03-20T01:24:52.752Z,99.90
2018-03-20T01:27:21.866Z,99.90
2018-03-20T01:29:50.855Z,99.90
2018-03-20T01:32:19.836Z,99.90
2018-03-20T01:34:49.538Z,99.90
2018-03-20T01:37:18.806Z,99.90
2018-03-20T01:39:47.978Z,99.90
2018-03-20T01:42:17.186Z,99.90
2018-03-20T01:44:46.515Z,99.90
2018-03-20T01:47:15.571Z,99.90
2018-03-20T01:49:45.599Z,99.90
2018-03-20T01:52:14.798Z,99.90
2018-03-20T01:54:43.791Z,99.90
2018-03-20T01:57:13.023Z,99.90
2018-03-20T01:59:42.019Z,99.90
2018-03-20T02:02:13.746Z,99.90
2018-03-20T02:04:42.842Z,99.90
2018-03-20T02:07:11.838Z,99.90
2018-03-20T02:09:41.811Z,99.90
2018-03-20T02:12:11.598Z,99.90
2018-03-20T02:14:40.664Z,99.90
2018-03-20T02:17:09.527Z,99.90
2018-03-20T02:19:40.222Z,99.90
2018-03-20T02:22:09.507Z,99.90
2018-03-20T02:24:38.575Z,99.90
2018-03-20T02:27:07.695Z,99.90
2018-03-20T02:29:37.523Z,99.90
2018-03-20T02:32:06.622Z,99.90
2018-03-20T02:34:35.794Z,99.90
2018-03-20T02:37:05.095Z,99.90
2018-03-20T02:39:34.327Z,99.90
2018-03-20T02:42:03.323Z,99.90
2018-03-20T02:44:32.555Z,99.90
2018-03-20T02:47:01.883Z,99.90
2018-03-20T02:49:31.192Z,99.90
2018-03-20T02:52:00.291Z,99.90
2018-03-20T02:54:31.588Z,99.90
2018-03-20T02:57:00.636Z,99.90
2018-03-20T02:59:29.666Z,99.90
2018-03-20T03:01:58.791Z,99.90
2018-03-20T03:04:28.639Z,99.90
2018-03-20T03:06:57.947Z,99.90
2018-03-20T03:09:27.039Z,99.90
2018-03-20T03:11:56.040Z,99.90
2018-03-20T03:14:25.267Z,99.90
2018-03-20T03:16:54.263Z,99.90
2018-03-20T03:19:23.251Z,99.90
2018-03-20T03:21:52.394Z,99.90
2018-03-20T03:24:22.367Z,99.90
2018-03-20T03:26:52.218Z,99.90
2018-03-20T03:29:22.194Z,99.90
2018-03-20T03:31:52.072Z,99.90
2018-03-20T03:34:21.447Z,99.90
2018-03-20T03:36:50.582Z,99.90
2018-03-20T03:39:19.815Z,99.90
2018-03-20T03:41:49.482Z,99.90
2018-03-20T03:44:18.515Z,99.90
2018-03-20T03:46:47.415Z,99.90
2018-03-20T03:49:16.588Z,99.90
2018-03-20T03:51:45.563Z,99.90
2018-03-20T03:54:14.508Z,99.90
2018-03-20T03:56:43.735Z,99.90
2018-03-20T03:59:12.648Z,99.90
2018-03-20T04:01:42.579Z,99.90
2018-03-20T04:04:11.807Z,99.90
2018-03-20T04:06:40.803Z,99.90
2018-03-20T04:09:10.470Z,99.90
2018-03-20T04:11:39.548Z,99.90
2018-03-20T04:14:08.374Z,99.90
2018-03-20T04:16:37.535Z,99.90
2018-03-20T04:19:06.866Z,99.90
2018-03-20T04:21:36.687Z,99.90
2018-03-20T04:24:05.882Z,99.90
2018-03-20T04:26:34.888Z,99.90
2018-03-20T04:29:04.856Z,99.90
2018-03-20T04:31:34.750Z,99.90
2018-03-20T04:34:03.643Z,99.90
2018-03-20T04:36:32.906Z,99.90
2018-03-20T04:39:01.940Z,99.90
2018-03-20T04:41:30.936Z,99.90
2018-03-20T04:44:00.060Z,99.90
2018-03-20T04:46:30.009Z,99.90
2018-03-20T04:48:59.031Z,99.90
2018-03-20T04:51:28.313Z,99.90
2018-03-20T04:53:58.182Z,99.90
2018-03-20T04:56:27.318Z,99.90
2018-03-20T04:58:56.514Z,99.90
2018-03-20T05:01:25.624Z,99.90
2018-03-20T05:03:55.431Z,99.90
2018-03-20T05:06:24.407Z,99.90
2018-03-20T05:08:53.554Z,99.90
2018-03-20T05:11:22.442Z,99.90
2018-03-20T05:13:51.548Z,99.90
2018-03-20T05:16:21.636Z,99.90
2018-03-20T05:18:55.383Z,99.90
2018-03-20T05:21:29.818Z,99.90
2018-03-20T05:23:59.291Z,99.90
2018-03-20T05:26:28.570Z,99.90
2018-03-20T05:28:58.714Z,99.90
2018-03-20T05:31:28.095Z,99.90
2018-03-20T05:33:57.190Z,99.90
2018-03-20T05:36:26.483Z,99.90
2018-03-20T05:38:55.519Z,99.90
2018-03-20T05:41:24.703Z,99.90
2018-03-20T05:43:54.423Z,99.90
2018-03-20T05:46:28.986Z,99.90
2018-03-20T05:48:59.048Z,99.90
2018-03-20T05:51:28.483Z,99.90
2018-03-20T05:53:58.567Z,99.90
2018-03-20T05:56:27.598Z,99.90
2018-03-20T05:58:56.594Z,99.90
2018-03-20T06:01:25.689Z,99.90
2018-03-20T06:03:54.814Z,99.90
2018-03-20T06:06:24.697Z,99.90
2018-03-20T06:08:53.797Z,99.90
2018-03-20T06:11:23.168Z,99.90
2018-03-20T06:13:53.144Z,99.90
2018-03-20T06:16:22.278Z,99.90
2018-03-20T06:18:51.687Z,99.90
2018-03-20T06:21:20.887Z,99.90
2018-03-20T06:23:49.897Z,99.90
2018-03-20T06:26:18.982Z,99.90
2018-03-20T06:28:48.107Z,99.90
2018-03-20T06:31:17.067Z,99.90
2018-03-20T06:33:47.044Z,99.90
2018-03-20T06:36:16.416Z,99.90
2018-03-20T06:38:46.096Z,99.90
2018-03-20T06:41:15.027Z,99.90
2018-03-20T06:43:43.997Z,99.90
2018-03-20T06:46:13.219Z,99.90
2018-03-20T06:48:42.207Z,99.90
2018-03-20T06:51:11.343Z,99.90
2018-03-20T06:53:40.261Z,99.90
2018-03-20T06:56:09.195Z,99.90
2018-03-20T06:58:38.228Z,99.90
2018-03-20T07:01:08.076Z,99.90
2018-03-20T07:03:37.275Z,99.90
2018-03-20T07:06:06.274Z,99.90
2018-03-20T07:08:36.446Z,99.90
2018-03-20T07:11:05.688Z,99.90
2018-03-20T07:13:34.915Z,99.90
2018-03-20T07:16:04.016Z,99.90
2018-03-20T07:18:33.087Z,99.90
2018-03-20T07:21:02.421Z,99.90
2018-03-20T07:23:31.434Z,99.90
2018-03-20T07:26:00.545Z,99.90
2018-03-20T07:28:30.627Z,99.90
2018-03-20T07:30:59.695Z,99.90
2018-03-20T07:33:28.694Z,99.90
2018-03-20T07:35:57.787Z,99.90
2018-03-20T07:38:27.115Z,99.90
2018-03-20T07:40:56.016Z,99.90
2018-03-20T07:43:25.083Z,99.00
2018-03-20T07:45:54.105Z,98.20
2018-03-20T07:48:23.102Z,96.70
2018-03-20T07:50:52.063Z,96.90
2018-03-20T07:53:21.055Z,97.40
2018-03-20T07:55:50.120Z,99.70
2018-03-20T07:58:19.151Z,99.90
2018-03-20T08:00:48.288Z,99.90
2018-03-20T08:03:17.271Z,99.90
2018-03-20T08:05:46.166Z,99.90
2018-03-20T08:08:15.403Z,99.90
2018-03-20T08:10:44.359Z,99.90
2018-03-20T08:13:13.397Z,99.90
2018-03-20T08:15:42.583Z,99.90
2018-03-20T08:18:12.563Z,99.90
2018-03-20T08:20:42.715Z,99.90
2018-03-20T08:23:11.988Z,99.90
2018-03-20T08:25:41.082Z,99.90
2018-03-20T08:28:10.261Z,99.90
2018-03-20T08:30:39.356Z,99.90
2018-03-20T08:33:08.555Z,99.90
2018-03-20T08:35:37.579Z,99.90
2018-03-20T08:38:06.780Z,99.90
2018-03-20T08:40:35.774Z,99.90
2018-03-20T08:43:04.802Z,99.90
2018-03-20T08:45:34.679Z,99.90
2018-03-20T08:48:03.837Z,99.90
2018-03-20T08:50:33.164Z,99.90
2018-03-20T08:53:02.259Z,99.90
2018-03-20T08:55:31.479Z,99.90
2018-03-20T08:58:00.379Z,99.90
2018-03-20T09:00:29.353Z,99.90
2018-03-20T09:02:59.212Z,99.90
2018-03-20T09:05:28.347Z,99.90
2018-03-20T09:07:57.472Z,99.90
2018-03-20T09:10:26.467Z,99.90
2018-03-20T09:12:55.563Z,99.90
2018-03-20T09:15:24.839Z,99.90
2018-03-20T09:17:54.088Z,99.90
2018-03-20T09:20:24.264Z,99.90
2018-03-20T09:22:55.410Z,99.90
2018-03-20T09:25:24.374Z,99.90
2018-03-20T09:27:53.279Z,99.90
2018-03-20T09:30:23.312Z,99.90
2018-03-20T09:32:52.331Z,99.90
2018-03-20T09:35:21.326Z,99.90
2018-03-20T09:37:50.502Z,99.90
2018-03-20T09:40:19.594Z,99.90
2018-03-20T09:42:48.595Z,99.90
2018-03-20T09:45:17.963Z,99.90
2018-03-20T09:47:46.920Z,99.90
2018-03-20T09:50:15.811Z,99.90
2018-03-20T09:52:45.008Z,99.90
2018-03-20T09:55:14.007Z,98.60
2018-03-20T09:57:43.141Z,99.80
2018-03-20T10:00:13.201Z,99.60
2018-03-20T10:02:43.308Z,98.10
2018-03-20T10:05:12.402Z,98.00
2018-03-20T10:07:42.189Z,99.90
2018-03-20T10:10:11.109Z,99.90
2018-03-20T10:12:40.403Z,99.90
2018-03-20T10:15:09.775Z,99.90
2018-03-20T10:17:39.599Z,99.90
2018-03-20T10:20:08.552Z,99.90
2018-03-20T10:22:37.711Z,99.90
2018-03-20T10:25:06.783Z,99.90
2018-03-20T10:27:36.559Z,99.90
2018-03-20T10:30:05.555Z,99.90
2018-03-20T10:32:34.859Z,99.90
2018-03-20T10:35:04.866Z,99.90
2018-03-20T10:37:34.135Z,99.90
2018-03-20T10:40:03.511Z,99.90
2018-03-20T10:42:33.200Z,99.90
2018-03-20T10:45:02.326Z,99.90
2018-03-20T10:47:32.275Z,99.90
2018-03-20T10:50:02.191Z,99.90
2018-03-20T10:52:31.687Z,99.90
2018-03-20T10:55:00.856Z,99.90
2018-03-20T10:57:30.774Z,99.90
2018-03-20T10:59:59.807Z,99.90
2018-03-20T11:02:31.862Z,99.90
2018-03-20T11:05:00.975Z,99.90
2018-03-20T11:07:29.948Z,99.90
2018-03-20T11:09:58.792Z,99.90
2018-03-20T11:12:29.358Z,99.90
2018-03-20T11:14:58.328Z,99.90
2018-03-20T11:17:27.387Z,99.90
2018-03-20T11:19:56.511Z,99.90
2018-03-20T11:22:25.507Z,99.90
2018-03-20T11:24:57.522Z,99.90
2018-03-20T11:27:26.772Z,99.90
2018-03-20T11:29:55.805Z,99.90
2018-03-20T11:32:26.063Z,99.90
2018-03-20T11:34:56.035Z,99.90
2018-03-20T11:37:25.930Z,99.90
2018-03-20T11:39:55.551Z,99.90
2018-03-20T11:42:24.659Z,99.90
2018-03-20T11:44:53.895Z,99.90
2018-03-20T11:47:23.204Z,99.90
2018-03-20T11:49:52.319Z,99.90
2018-03-20T11:52:21.601Z,99.90
2018-03-20T11:54:50.695Z,99.90
2018-03-20T11:57:19.622Z,99.90
2018-03-20T11:59:48.483Z,99.90
2018-03-20T12:02:17.783Z,99.90
2018-03-20T12:04:46.905Z,99.90
2018-03-20T12:07:15.911Z,99.90
2018-03-20T12:09:49.982Z,99.90
2018-03-20T12:12:18.822Z,99.90
2018-03-20T12:14:47.939Z,99.90
2018-03-20T12:17:18.011Z,99.90
2018-03-20T12:19:47.124Z,99.90
2018-03-20T12:22:16.326Z,99.90
2018-03-20T12:24:45.423Z,99.90
2018-03-20T12:27:14.523Z,99.90
2018-03-20T12:29:43.658Z,99.90
2018-03-20T12:32:12.723Z,99.90
2018-03-20T12:34:41.771Z,99.90
2018-03-20T12:37:10.651Z,99.90
2018-03-20T12:39:39.763Z,99.90
2018-03-20T12:42:09.127Z,99.90
2018-03-20T12:44:38.469Z,99.90
2018-03-20T12:47:07.596Z,99.90
2018-03-20T12:49:36.971Z,99.90
2018-03-20T12:52:06.003Z,99.90
2018-03-20T12:54:35.026Z,99.90
2018-03-20T12:57:05.007Z,99.90
2018-03-20T12:59:34.184Z,99.90
2018-03-20T13:02:03.276Z,99.90
2018-03-20T13:04:33.285Z,99.90
2018-03-20T13:07:02.623Z,99.90
2018-03-20T13:09:32.289Z,99.90
2018-03-20T13:12:02.251Z,99.90
2018-03-20T13:14:31.422Z,99.90
2018-03-20T13:17:00.561Z,99.90
2018-03-20T13:19:29.647Z,99.90
2018-03-20T13:21:58.746Z,99.90
2018-03-20T13:24:27.838Z,99.90
2018-03-20T13:26:57.854Z,99.90
2018-03-20T13:29:26.968Z,99.90
2018-03-20T13:31:56.028Z,99.90
2018-03-20T13:34:26.792Z,99.90
2018-03-20T13:36:55.687Z,99.90
2018-03-20T13:39:24.750Z,99.90
2018-03-20T13:41:53.978Z,99.90
2018-03-20T13:44:23.112Z,99.90
2018-03-20T13:46:52.987Z,99.90
2018-03-20T13:49:22.263Z,99.90
2018-03-20T13:51:51.259Z,99.90
2018-03-20T13:54:21.231Z,99.90
2018-03-20T13:56:51.119Z,99.90
2018-03-20T13:59:20.114Z,99.90
2018-03-20T14:01:49.242Z,99.90
2018-03-20T14:04:18.203Z,99.90
2018-03-20T14:06:47.367Z,99.90
2018-03-20T14:09:16.356Z,99.90
2018-03-20T14:11:45.258Z,99.90
2018-03-20T14:14:14.518Z,99.90
2018-03-20T14:16:44.299Z,99.90
2018-03-20T14:19:13.966Z,99.90
2018-03-20T14:21:43.207Z,99.90
2018-03-20T14:24:12.302Z,99.90
2018-03-20T14:26:41.883Z,99.90
2018-03-20T14:29:10.764Z,99.90
2018-03-20T14:31:40.698Z,99.90
2018-03-20T14:34:09.937Z,99.90
2018-03-20T14:36:39.303Z,99.90
2018-03-20T14:39:08.629Z,99.90
2018-03-20T14:41:37.828Z,99.90
2018-03-20T14:44:06.895Z,99.90
2018-03-20T14:46:36.095Z,99.90
2018-03-20T14:49:05.843Z,99.90
2018-03-20T14:51:34.834Z,99.90
2018-03-20T14:54:13.073Z,99.90
2018-03-20T14:56:51.488Z,99.90
2018-03-20T14:59:22.117Z,99.90
2018-03-20T15:01:51.984Z,99.90
2018-03-20T15:04:21.178Z,99.90
2018-03-20T15:06:50.199Z,99.90
2018-03-20T15:09:19.295Z,99.90
2018-03-20T15:11:49.083Z,99.90
2018-03-20T15:14:17.955Z,99.90
2018-03-20T15:16:46.846Z,99.90
2018-03-20T15:19:16.778Z,99.90
2018-03-20T15:21:45.779Z,99.90
2018-03-20T15:24:14.774Z,99.90
2018-03-20T15:26:44.009Z,99.90
2018-03-20T15:29:13.004Z,99.90
2018-03-20T15:31:41.999Z,99.90
2018-03-20T15:34:11.124Z,99.90
2018-03-20T15:36:40.215Z,99.90
2018-03-20T15:39:09.387Z,99.90
2018-03-20T15:41:38.919Z,99.90
2018-03-20T15:44:08.120Z,99.90
2018-03-20T15:46:37.491Z,99.90
2018-03-20T15:49:06.564Z,99.90
2018-03-20T15:51:35.616Z,99.90
2018-03-20T15:54:04.962Z,99.90
2018-03-20T15:56:34.036Z,99.90
2018-03-20T15:59:03.877Z,99.90
2018-03-20T16:01:33.759Z,99.90
2018-03-20T16:04:03.595Z,99.90
2018-03-20T16:06:32.695Z,99.90
2018-03-20T16:09:01.899Z,99.90
2018-03-20T16:11:31.199Z,99.90
2018-03-20T16:14:00.134Z,99.90
2018-03-20T16:16:30.374Z,99.90
2018-03-20T16:18:59.632Z,99.90
2018-03-20T16:21:34.697Z,99.90
2018-03-20T16:24:08.603Z,99.90
2018-03-20T16:26:37.764Z,99.90
2018-03-20T16:29:06.960Z,99.90
2018-03-20T16:31:35.985Z,99.90
2018-03-20T16:34:05.576Z,99.90
2018-03-20T16:36:38.396Z,99.90
2018-03-20T16:39:08.327Z,99.90
2018-03-20T16:41:37.295Z,99.90
2018-03-20T16:44:06.420Z,99.90
2018-03-20T16:46:35.521Z,99.90
2018-03-20T16:49:05.168Z,99.90
2018-03-20T16:51:34.944Z,99.90
2018-03-20T16:54:04.550Z,99.90
2018-03-20T16:56:33.639Z,99.90
2018-03-20T16:59:02.774Z,99.90
2018-03-20T17:01:31.772Z,99.90
2018-03-20T17:04:01.003Z,99.90
2018-03-20T17:06:29.997Z,99.90
2018-03-20T17:08:59.095Z,99.90
2018-03-20T17:11:28.959Z,99.90
2018-03-20T17:13:59.278Z,99.90
2018-03-20T17:16:28.988Z,99.90
2018-03-20T17:18:58.257Z,99.90
2018-03-20T17:21:27.465Z,99.90
2018-03-20T17:23:56.878Z,99.90
2018-03-20T17:26:26.015Z,99.90
2018-03-20T17:28:55.123Z,99.90
2018-03-20T17:31:24.317Z,99.90
2018-03-20T17:33:53.725Z,99.90
2018-03-20T17:36:22.715Z,99.90
2018-03-20T17:38:51.736Z,99.90
2018-03-20T17:41:21.050Z,99.90
2018-03-20T17:43:50.211Z,99.90
2018-03-20T17:46:19.445Z,99.90
2018-03-20T17:48:48.445Z,99.90
2018-03-20T17:51:17.603Z,99.90
2018-03-20T17:53:46.767Z,99.90
2018-03-20T17:56:15.831Z,99.90
2018-03-20T17:58:44.823Z,99.90
2018-03-20T18:01:13.880Z,99.90
2018-03-20T18:03:42.947Z,99.90
2018-03-20T18:06:11.983Z,99.90
2018-03-20T18:08:40.974Z,99.90
2018-03-20T18:11:10.108Z,99.90
2018-03-20T18:13:39.103Z,99.90
2018-03-20T18:16:08.900Z,99.90
2018-03-20T18:18:38.863Z,99.90
2018-03-20T18:21:07.791Z,99.90
2018-03-20T18:23:36.819Z,99.90
2018-03-20T18:26:06.131Z,99.90
2018-03-20T18:28:35.373Z,99.90
2018-03-20T18:31:04.545Z,99.90
2018-03-20T18:33:33.683Z,99.90
2018-03-20T18:36:03.562Z,99.90
2018-03-20T18:38:32.532Z,99.90
2018-03-20T18:41:01.522Z,99.90
2018-03-20T18:43:30.650Z,99.90
2018-03-20T18:45:59.854Z,99.90
2018-03-20T18:48:29.697Z,99.90
2018-03-20T18:50:58.795Z,99.90
2018-03-20T18:53:28.023Z,99.90
2018-03-20T18:55:57.014Z,99.90
2018-03-20T18:58:26.291Z,99.90
2018-03-20T19:00:55.287Z,99.90
2018-03-20T19:03:24.279Z,99.90
2018-03-20T19:05:53.483Z,99.90
2018-03-20T19:08:22.503Z,99.90
2018-03-20T19:10:51.983Z,99.90
2018-03-20T19:13:20.979Z,99.90
2018-03-20T19:15:50.075Z,99.90
2018-03-20T19:18:19.314Z,99.90
2018-03-20T19:20:48.303Z,99.90
2018-03-20T19:23:17.434Z,99.90
2018-03-20T19:25:47.338Z,99.90
2018-03-20T19:28:16.615Z,99.90
2018-03-20T19:30:45.679Z,99.90
2018-03-20T19:33:14.879Z,99.90
2018-03-20T19:35:44.012Z,99.90
2018-03-20T19:38:12.970Z,99.90
2018-03-20T19:40:41.999Z,99.90
2018-03-20T19:43:12.631Z,99.90
2018-03-20T19:45:41.523Z,99.90
2018-03-20T19:48:10.589Z,99.90
2018-03-20T19:50:39.716Z,99.90
2018-03-20T19:53:10.624Z,99.90
2018-03-20T19:55:39.619Z,99.90
2018-03-20T19:58:09.079Z,99.90
2018-03-20T20:00:38.219Z,99.90
2018-03-20T20:03:07.535Z,99.90
2018-03-20T20:05:37.335Z,99.90
2018-03-20T20:08:06.331Z,99.90
2018-03-20T20:10:35.257Z,99.90
2018-03-20T20:13:04.486Z,99.90
2018-03-20T20:15:33.404Z,99.90
2018-03-20T20:18:03.359Z,99.90
2018-03-20T20:20:32.437Z,99.90
2018-03-20T20:23:01.732Z,99.90
2018-03-20T20:25:30.739Z,99.90
2018-03-20T20:27:59.893Z,99.90
2018-03-20T20:30:28.751Z,99.90
2018-03-20T20:32:57.812Z,99.90
2018-03-20T20:35:27.831Z,99.90
2018-03-20T20:37:56.924Z,99.90
2018-03-20T20:40:26.126Z,99.90
2018-03-20T20:42:55.123Z,99.90
2018-03-20T20:45:24.839Z,99.90
2018-03-20T20:47:53.703Z,99.90
2018-03-20T20:50:22.414Z,99.90
2018-03-20T20:52:51.611Z,99.90
2018-03-20T20:55:21.587Z,99.90
2018-03-20T20:57:50.723Z,99.90
2018-03-20T21:00:19.955Z,99.90
2018-03-20T21:02:49.254Z,99.90
2018-03-20T21:05:18.427Z,99.90
2018-03-20T21:07:47.430Z,99.90
2018-03-20T21:10:16.455Z,99.90
2018-03-20T21:12:45.680Z,99.90
2018-03-20T21:15:14.655Z,99.90
2018-03-20T21:17:43.640Z,99.90
2018-03-20T21:20:12.843Z,99.90
2018-03-20T21:22:41.836Z,99.90
2018-03-20T21:25:11.064Z,99.90
2018-03-20T21:27:39.971Z,99.90
2018-03-20T21:30:08.923Z,99.90
2018-03-20T21:32:38.048Z,99.90
2018-03-20T21:35:06.907Z,99.90
2018-03-20T21:37:35.799Z,99.90
2018-03-20T21:40:05.031Z,99.90
2018-03-20T21:42:34.099Z,99.90
2018-03-20T21:45:03.831Z,99.90
2018-03-20T21:47:33.586Z,99.90
2018-03-20T21:50:02.687Z,99.90
2018-03-20T21:52:31.482Z,99.90
2018-03-20T21:55:00.575Z,99.90
2018-03-20T21:57:29.479Z,99.90
2018-03-20T21:59:58.378Z,99.90
2018-03-20T22:02:27.455Z,99.90
2018-03-20T22:04:56.470Z,99.90
2018-03-20T22:07:26.263Z,99.90
2018-03-20T22:09:55.088Z,99.90
2018-03-20T22:12:23.948Z,99.90
2018-03-20T22:14:52.835Z,99.90
2018-03-20T22:17:21.651Z,99.90
2018-03-20T22:19:51.163Z,99.90
2018-03-20T22:22:20.775Z,99.90
2018-03-20T22:24:50.457Z,99.90
2018-03-20T22:27:19.343Z,99.90
2018-03-20T22:29:48.550Z,99.90
2018-03-20T22:32:17.534Z,99.90
2018-03-20T22:34:46.538Z,99.90
2018-03-20T22:37:15.612Z,99.90
2018-03-20T22:39:44.759Z,99.90
2018-03-20T22:42:14.635Z,99.90
2018-03-20T22:44:44.387Z,99.90
2018-03-20T22:47:14.127Z,99.90
2018-03-20T22:49:43.948Z,99.90
2018-03-20T22:52:12.871Z,99.90
2018-03-20T22:54:41.894Z,99.90
2018-03-20T22:57:11.562Z,99.90
2018-03-20T22:59:40.531Z,99.90
2018-03-20T23:02:10.286Z,99.90
2018-03-20T23:04:39.408Z,99.90
2018-03-20T23:07:08.484Z,99.90
2018-03-20T23:09:37.396Z,99.90
2018-03-20T23:12:06.495Z,99.90
2018-03-20T23:14:36.161Z,99.90
2018-03-20T23:17:04.904Z,99.90
2018-03-20T23:19:34.560Z,99.90
2018-03-20T23:22:03.731Z,99.90
2018-03-20T23:24:32.879Z,99.90
2018-03-20T23:27:02.000Z,99.90
2018-03-20T23:29:31.071Z,99.90
2018-03-20T23:31:59.987Z,99.90
2018-03-20T23:34:29.734Z,99.90
2018-03-20T23:36:58.491Z,99.90
2018-03-20T23:39:27.559Z,99.90
2018-03-20T23:41:56.375Z,99.90
2018-03-20T23:44:25.267Z,99.90
2018-03-20T23:46:54.543Z,99.90
2018-03-20T23:49:23.587Z,99.90
2018-03-20T23:51:52.617Z,99.90
2018-03-20T23:54:22.711Z,99.90
2018-03-20T23:56:52.501Z,99.90
2018-03-20T23:59:22.341Z,99.90
